sensor_id;sensor_type;location;lat;lon;timestamp;pressure;altitude;pressure_sealevel;temperature;humidity
4273;BME280;63887;53.656;9.810;2022-12-18T00:01:59;103038.19;;;-6.04;91.09
4273;BME280;63887;53.656;9.810;2022-12-18T00:04:26;103037.91;;;-6.10;91.03
4273;BME280;63887;53.656;9.810;2022-12-18T00:06:54;103036.84;;;-6.13;90.88
4273;BME280;63887;53.656;9.810;2022-12-18T00:09:20;103026.63;;;-6.13;91.04
4273;BME280;63887;53.656;9.810;2022-12-18T00:11:47;103036.94;;;-6.12;91.05
4273;BME280;63887;53.656;9.810;2022-12-18T00:14:14;103034.97;;;-6.17;90.94
4273;BME280;63887;53.656;9.810;2022-12-18T00:16:43;103040.00;;;-6.19;91.45
4273;BME280;63887;53.656;9.810;2022-12-18T00:19:10;103049.41;;;-6.18;91.94
4273;BME280;63887;53.656;9.810;2022-12-18T00:21:37;103046.44;;;-6.25;90.95
4273;BME280;63887;53.656;9.810;2022-12-18T00:24:08;103065.19;;;-6.25;91.10
4273;BME280;63887;53.656;9.810;2022-12-18T00:26:36;103077.81;;;-6.28;91.53
4273;BME280;63887;53.656;9.810;2022-12-18T00:29:05;103076.16;;;-6.27;91.55
4273;BME280;63887;53.656;9.810;2022-12-18T00:31:32;103075.34;;;-6.26;91.80
4273;BME280;63887;53.656;9.810;2022-12-18T00:33:59;103070.25;;;-6.26;92.01
4273;BME280;63887;53.656;9.810;2022-12-18T00:36:27;103069.28;;;-6.28;91.49
4273;BME280;63887;53.656;9.810;2022-12-18T00:38:55;103059.88;;;-6.29;91.30
4273;BME280;63887;53.656;9.810;2022-12-18T00:41:24;103057.16;;;-6.33;91.69
4273;BME280;63887;53.656;9.810;2022-12-18T00:44:10;103062.28;;;-6.33;91.41
4273;BME280;63887;53.656;9.810;2022-12-18T00:46:37;103062.34;;;-6.31;91.67
4273;BME280;63887;53.656;9.810;2022-12-18T00:49:04;103063.88;;;-6.35;91.26
4273;BME280;63887;53.656;9.810;2022-12-18T00:51:30;103072.19;;;-6.39;91.15
4273;BME280;63887;53.656;9.810;2022-12-18T00:53:57;103068.84;;;-6.38;91.08
4273;BME280;63887;53.656;9.810;2022-12-18T00:56:25;103069.44;;;-6.42;91.79
4273;BME280;63887;53.656;9.810;2022-12-18T00:58:51;103061.88;;;-6.40;91.26
4273;BME280;63887;53.656;9.810;2022-12-18T01:01:18;103065.16;;;-6.43;91.96
4273;BME280;63887;53.656;9.810;2022-12-18T01:03:44;103066.97;;;-6.40;91.65
4273;BME280;63887;53.656;9.810;2022-12-18T01:06:14;103066.91;;;-6.42;91.23
4273;BME280;63887;53.656;9.810;2022-12-18T01:08:41;103063.53;;;-6.41;91.55
4273;BME280;63887;53.656;9.810;2022-12-18T01:11:09;103057.50;;;-6.43;91.54
4273;BME280;63887;53.656;9.810;2022-12-18T01:13:37;103061.72;;;-6.43;91.54
4273;BME280;63887;53.656;9.810;2022-12-18T01:16:04;103056.47;;;-6.46;91.16
4273;BME280;63887;53.656;9.810;2022-12-18T01:18:30;103061.78;;;-6.42;91.36
4273;BME280;63887;53.656;9.810;2022-12-18T01:20:57;103056.16;;;-6.36;91.85
4273;BME280;63887;53.656;9.810;2022-12-18T01:23:24;103060.59;;;-6.32;91.34
4273;BME280;63887;53.656;9.810;2022-12-18T01:25:53;103056.66;;;-6.25;91.19
4273;BME280;63887;53.656;9.810;2022-12-18T01:28:19;103050.22;;;-6.19;91.22
4273;BME280;63887;53.656;9.810;2022-12-18T01:30:47;103059.78;;;-6.15;91.16
4273;BME280;63887;53.656;9.810;2022-12-18T01:33:14;103060.16;;;-6.07;91.05
4273;BME280;63887;53.656;9.810;2022-12-18T01:35:40;103070.59;;;-6.03;90.69
4273;BME280;63887;53.656;9.810;2022-12-18T01:38:07;103074.13;;;-6.01;91.35
4273;BME280;63887;53.656;9.810;2022-12-18T01:40:34;103079.00;;;-6.05;90.92
4273;BME280;63887;53.656;9.810;2022-12-18T01:43:01;103073.03;;;-6.06;90.69
4273;BME280;63887;53.656;9.810;2022-12-18T01:45:29;103082.38;;;-6.06;90.71
4273;BME280;63887;53.656;9.810;2022-12-18T01:48:00;103084.78;;;-6.09;90.74
4273;BME280;63887;53.656;9.810;2022-12-18T01:50:31;103086.66;;;-6.05;91.08
4273;BME280;63887;53.656;9.810;2022-12-18T01:53:02;103080.44;;;-6.10;90.70
4273;BME280;63887;53.656;9.810;2022-12-18T01:55:32;103089.78;;;-6.11;90.83
4273;BME280;63887;53.656;9.810;2022-12-18T01:58:01;103087.94;;;-6.13;90.39
4273;BME280;63887;53.656;9.810;2022-12-18T02:00:28;103087.41;;;-6.08;90.86
4273;BME280;63887;53.656;9.810;2022-12-18T02:02:55;103092.31;;;-6.11;90.99
4273;BME280;63887;53.656;9.810;2022-12-18T02:05:34;103087.00;;;-6.15;90.67
4273;BME280;63887;53.656;9.810;2022-12-18T02:08:09;103090.44;;;-6.15;90.85
4273;BME280;63887;53.656;9.810;2022-12-18T02:10:46;103096.19;;;-6.19;90.76
4273;BME280;63887;53.656;9.810;2022-12-18T02:13:19;103102.81;;;-6.22;90.71
4273;BME280;63887;53.656;9.810;2022-12-18T02:15:51;103110.41;;;-6.24;91.03
4273;BME280;63887;53.656;9.810;2022-12-18T02:18:24;103112.09;;;-6.24;91.17
4273;BME280;63887;53.656;9.810;2022-12-18T02:20:59;103103.28;;;-6.29;91.23
4273;BME280;63887;53.656;9.810;2022-12-18T02:23:41;103112.78;;;-6.27;90.81
4273;BME280;63887;53.656;9.810;2022-12-18T02:26:16;103114.38;;;-6.29;90.52
4273;BME280;63887;53.656;9.810;2022-12-18T02:28:47;103115.25;;;-6.28;90.62
4273;BME280;63887;53.656;9.810;2022-12-18T02:31:23;103118.59;;;-6.29;90.13
4273;BME280;63887;53.656;9.810;2022-12-18T02:33:53;103110.78;;;-6.33;90.37
4273;BME280;63887;53.656;9.810;2022-12-18T02:36:24;103109.84;;;-6.35;90.81
4273;BME280;63887;53.656;9.810;2022-12-18T02:38:52;103111.44;;;-6.37;90.86
4273;BME280;63887;53.656;9.810;2022-12-18T02:41:21;103103.06;;;-6.34;90.90
4273;BME280;63887;53.656;9.810;2022-12-18T02:43:55;103095.06;;;-6.40;90.62
4273;BME280;63887;53.656;9.810;2022-12-18T02:46:31;103108.00;;;-6.37;90.72
4273;BME280;63887;53.656;9.810;2022-12-18T02:49:05;103106.88;;;-6.42;90.44
4273;BME280;63887;53.656;9.810;2022-12-18T02:51:39;103113.59;;;-6.44;90.88
4273;BME280;63887;53.656;9.810;2022-12-18T02:54:13;103116.78;;;-6.48;90.56
4273;BME280;63887;53.656;9.810;2022-12-18T02:56:46;103108.09;;;-6.52;90.34
4273;BME280;63887;53.656;9.810;2022-12-18T02:59:19;103112.41;;;-6.51;90.50
4273;BME280;63887;53.656;9.810;2022-12-18T03:01:52;103108.88;;;-6.53;90.92
4273;BME280;63887;53.656;9.810;2022-12-18T03:04:26;103114.78;;;-6.54;90.85
4273;BME280;63887;53.656;9.810;2022-12-18T03:06:57;103117.09;;;-6.58;90.43
4273;BME280;63887;53.656;9.810;2022-12-18T03:09:28;103115.25;;;-6.61;90.20
4273;BME280;63887;53.656;9.810;2022-12-18T03:12:03;103116.22;;;-6.59;90.84
4273;BME280;63887;53.656;9.810;2022-12-18T03:14:53;103120.03;;;-6.67;91.02
4273;BME280;63887;53.656;9.810;2022-12-18T03:17:23;103121.72;;;-6.68;90.88
4273;BME280;63887;53.656;9.810;2022-12-18T03:19:53;103121.63;;;-6.69;90.80
4273;BME280;63887;53.656;9.810;2022-12-18T03:22:21;103116.53;;;-6.69;90.91
4273;BME280;63887;53.656;9.810;2022-12-18T03:24:50;103119.84;;;-6.70;90.70
4273;BME280;63887;53.656;9.810;2022-12-18T03:27:20;103123.28;;;-6.70;90.40
4273;BME280;63887;53.656;9.810;2022-12-18T03:29:51;103120.41;;;-6.76;90.40
4273;BME280;63887;53.656;9.810;2022-12-18T03:32:25;103117.06;;;-6.75;90.38
4273;BME280;63887;53.656;9.810;2022-12-18T03:34:58;103123.03;;;-6.74;90.48
4273;BME280;63887;53.656;9.810;2022-12-18T03:37:27;103123.03;;;-6.74;90.27
4273;BME280;63887;53.656;9.810;2022-12-18T03:39:59;103129.59;;;-6.79;90.08
4273;BME280;63887;53.656;9.810;2022-12-18T03:42:29;103123.53;;;-6.81;90.60
4273;BME280;63887;53.656;9.810;2022-12-18T03:45:05;103129.44;;;-6.82;90.17
4273;BME280;63887;53.656;9.810;2022-12-18T03:47:38;103126.06;;;-6.81;90.63
4273;BME280;63887;53.656;9.810;2022-12-18T03:50:11;103122.66;;;-6.82;90.47
4273;BME280;63887;53.656;9.810;2022-12-18T03:52:42;103121.59;;;-6.85;90.05
4273;BME280;63887;53.656;9.810;2022-12-18T03:55:11;103121.59;;;-6.85;90.21
4273;BME280;63887;53.656;9.810;2022-12-18T03:57:41;103118.06;;;-6.87;90.02
4273;BME280;63887;53.656;9.810;2022-12-18T04:00:11;103125.56;;;-6.91;90.05
4273;BME280;63887;53.656;9.810;2022-12-18T04:02:42;103126.38;;;-6.92;90.39
4273;BME280;63887;53.656;9.810;2022-12-18T04:05:10;103128.03;;;-6.92;90.34
4273;BME280;63887;53.656;9.810;2022-12-18T04:07:38;103116.72;;;-6.97;90.20
4273;BME280;63887;53.656;9.810;2022-12-18T04:10:07;103114.78;;;-7.01;90.00
4273;BME280;63887;53.656;9.810;2022-12-18T04:12:39;103116.28;;;-7.05;90.48
4273;BME280;63887;53.656;9.810;2022-12-18T04:15:07;103122.97;;;-7.07;91.01
4273;BME280;63887;53.656;9.810;2022-12-18T04:17:34;103127.03;;;-7.10;90.19
4273;BME280;63887;53.656;9.810;2022-12-18T04:20:00;103118.50;;;-7.11;90.14
4273;BME280;63887;53.656;9.810;2022-12-18T04:22:27;103129.06;;;-7.19;90.63
4273;BME280;63887;53.656;9.810;2022-12-18T04:24:54;103123.16;;;-7.18;90.16
4273;BME280;63887;53.656;9.810;2022-12-18T04:27:20;103123.00;;;-7.22;90.64
4273;BME280;63887;53.656;9.810;2022-12-18T04:29:48;103119.41;;;-7.25;90.48
4273;BME280;63887;53.656;9.810;2022-12-18T04:32:14;103122.84;;;-7.25;90.23
4273;BME280;63887;53.656;9.810;2022-12-18T04:34:41;103114.41;;;-7.24;90.65
4273;BME280;63887;53.656;9.810;2022-12-18T04:37:07;103116.00;;;-7.26;90.56
4273;BME280;63887;53.656;9.810;2022-12-18T04:39:34;103117.47;;;-7.29;90.83
4273;BME280;63887;53.656;9.810;2022-12-18T04:42:00;103112.13;;;-7.34;90.42
4273;BME280;63887;53.656;9.810;2022-12-18T04:44:27;103116.88;;;-7.40;90.33
4273;BME280;63887;53.656;9.810;2022-12-18T04:46:55;103118.81;;;-7.36;90.33
4273;BME280;63887;53.656;9.810;2022-12-18T04:49:21;103115.31;;;-7.38;90.63
4273;BME280;63887;53.656;9.810;2022-12-18T04:51:48;103117.94;;;-7.36;90.90
4273;BME280;63887;53.656;9.810;2022-12-18T04:54:14;103115.31;;;-7.38;90.10
4273;BME280;63887;53.656;9.810;2022-12-18T04:56:40;103103.97;;;-7.43;90.42
4273;BME280;63887;53.656;9.810;2022-12-18T04:59:07;103116.81;;;-7.41;90.75
4273;BME280;63887;53.656;9.810;2022-12-18T05:01:33;103126.03;;;-7.43;90.57
4273;BME280;63887;53.656;9.810;2022-12-18T05:04:01;103130.84;;;-7.48;89.80
4273;BME280;63887;53.656;9.810;2022-12-18T05:06:28;103143.19;;;-7.56;90.71
4273;BME280;63887;53.656;9.810;2022-12-18T05:08:55;103150.75;;;-7.57;90.89
4273;BME280;63887;53.656;9.810;2022-12-18T05:11:21;103149.66;;;-7.61;90.69
4273;BME280;63887;53.656;9.810;2022-12-18T05:13:47;103148.53;;;-7.66;90.44
4273;BME280;63887;53.656;9.810;2022-12-18T05:16:14;103152.84;;;-7.65;90.99
4273;BME280;63887;53.656;9.810;2022-12-18T05:18:41;103151.94;;;-7.65;90.85
4273;BME280;63887;53.656;9.810;2022-12-18T05:21:09;103145.44;;;-7.60;90.93
4273;BME280;63887;53.656;9.810;2022-12-18T05:23:36;103155.03;;;-7.56;91.20
4273;BME280;63887;53.656;9.810;2022-12-18T05:26:04;103158.31;;;-7.59;91.15
4273;BME280;63887;53.656;9.810;2022-12-18T05:28:32;103156.81;;;-7.55;91.39
4273;BME280;63887;53.656;9.810;2022-12-18T05:31:01;103161.53;;;-7.46;91.20
4273;BME280;63887;53.656;9.810;2022-12-18T05:33:29;103162.50;;;-7.44;90.77
4273;BME280;63887;53.656;9.810;2022-12-18T05:35:58;103161.53;;;-7.46;91.03
4273;BME280;63887;53.656;9.810;2022-12-18T05:38:29;103163.91;;;-7.49;90.60
4273;BME280;63887;53.656;9.810;2022-12-18T05:40:56;103160.47;;;-7.50;91.34
4273;BME280;63887;53.656;9.810;2022-12-18T05:43:23;103154.59;;;-7.49;91.46
4273;BME280;63887;53.656;9.810;2022-12-18T05:45:50;103157.22;;;-7.47;91.23
4273;BME280;63887;53.656;9.810;2022-12-18T05:48:17;103169.09;;;-7.48;91.04
4273;BME280;63887;53.656;9.810;2022-12-18T05:50:45;103171.56;;;-7.49;91.20
4273;BME280;63887;53.656;9.810;2022-12-18T05:53:12;103173.84;;;-7.54;91.15
4273;BME280;63887;53.656;9.810;2022-12-18T05:55:41;103177.19;;;-7.55;90.69
4273;BME280;63887;53.656;9.810;2022-12-18T05:58:09;103179.75;;;-7.55;91.00
4273;BME280;63887;53.656;9.810;2022-12-18T06:00:38;103172.19;;;-7.54;91.14
4273;BME280;63887;53.656;9.810;2022-12-18T06:03:05;103169.09;;;-7.63;91.09
4273;BME280;63887;53.656;9.810;2022-12-18T06:05:34;103169.97;;;-7.62;90.98
4273;BME280;63887;53.656;9.810;2022-12-18T06:08:01;103170.03;;;-7.61;90.86
4273;BME280;63887;53.656;9.810;2022-12-18T06:10:28;103173.03;;;-7.68;91.23
4273;BME280;63887;53.656;9.810;2022-12-18T06:12:56;103167.41;;;-7.62;90.94
4273;BME280;63887;53.656;9.810;2022-12-18T06:15:22;103172.59;;;-7.61;90.86
4273;BME280;63887;53.656;9.810;2022-12-18T06:17:49;103168.28;;;-7.62;90.50
4273;BME280;63887;53.656;9.810;2022-12-18T06:20:16;103167.69;;;-7.58;90.72
4273;BME280;63887;53.656;9.810;2022-12-18T06:22:42;103169.00;;;-7.64;90.73
4273;BME280;63887;53.656;9.810;2022-12-18T06:25:09;103163.66;;;-7.69;90.83
4273;BME280;63887;53.656;9.810;2022-12-18T06:27:35;103177.59;;;-7.77;90.87
4273;BME280;63887;53.656;9.810;2022-12-18T06:30:04;103178.75;;;-7.72;90.96
4273;BME280;63887;53.656;9.810;2022-12-18T06:32:30;103173.38;;;-7.76;90.68
4273;BME280;63887;53.656;9.810;2022-12-18T06:34:57;103177.44;;;-7.65;90.70
4273;BME280;63887;53.656;9.810;2022-12-18T06:37:23;103176.22;;;-7.72;90.41
4273;BME280;63887;53.656;9.810;2022-12-18T06:39:51;103168.66;;;-7.70;90.40
4273;BME280;63887;53.656;9.810;2022-12-18T06:42:17;103175.84;;;-7.78;90.47
4273;BME280;63887;53.656;9.810;2022-12-18T06:44:51;103179.72;;;-7.70;90.51
4273;BME280;63887;53.656;9.810;2022-12-18T06:47:19;103182.09;;;-7.73;90.60
4273;BME280;63887;53.656;9.810;2022-12-18T06:49:45;103189.13;;;-7.69;90.81
4273;BME280;63887;53.656;9.810;2022-12-18T06:52:12;103194.53;;;-7.77;90.57
4273;BME280;63887;53.656;9.810;2022-12-18T06:54:45;103186.81;;;-7.79;90.15
4273;BME280;63887;53.656;9.810;2022-12-18T06:57:12;103187.59;;;-7.80;90.62
4273;BME280;63887;53.656;9.810;2022-12-18T06:59:38;103188.75;;;-7.75;90.82
4273;BME280;63887;53.656;9.810;2022-12-18T07:02:05;103187.00;;;-7.76;90.53
4273;BME280;63887;53.656;9.810;2022-12-18T07:04:33;103192.09;;;-7.76;90.20
4273;BME280;63887;53.656;9.810;2022-12-18T07:06:59;103185.94;;;-7.79;89.70
4273;BME280;63887;53.656;9.810;2022-12-18T07:09:26;103190.31;;;-7.77;90.60
4273;BME280;63887;53.656;9.810;2022-12-18T07:11:52;103193.75;;;-7.76;90.79
4273;BME280;63887;53.656;9.810;2022-12-18T07:14:19;103193.50;;;-7.81;90.11
4273;BME280;63887;53.656;9.810;2022-12-18T07:16:45;103195.44;;;-7.77;90.59
4273;BME280;63887;53.656;9.810;2022-12-18T07:19:12;103201.13;;;-7.81;91.06
4273;BME280;63887;53.656;9.810;2022-12-18T07:21:39;103202.38;;;-7.74;90.92
4273;BME280;63887;53.656;9.810;2022-12-18T07:24:06;103208.78;;;-7.81;90.45
4273;BME280;63887;53.656;9.810;2022-12-18T07:26:33;103209.56;;;-7.82;90.44
4273;BME280;63887;53.656;9.810;2022-12-18T07:29:00;103210.53;;;-7.80;90.04
4273;BME280;63887;53.656;9.810;2022-12-18T07:31:26;103216.16;;;-7.86;90.14
4273;BME280;63887;53.656;9.810;2022-12-18T07:33:53;103207.44;;;-7.89;90.36
4273;BME280;63887;53.656;9.810;2022-12-18T07:36:20;103211.41;;;-7.79;90.38
4273;BME280;63887;53.656;9.810;2022-12-18T07:38:50;103220.91;;;-7.77;89.79
4273;BME280;63887;53.656;9.810;2022-12-18T07:41:18;103221.69;;;-7.78;90.15
4273;BME280;63887;53.656;9.810;2022-12-18T07:43:45;103213.66;;;-7.71;90.03
4273;BME280;63887;53.656;9.810;2022-12-18T07:46:13;103215.84;;;-7.62;89.93
4273;BME280;63887;53.656;9.810;2022-12-18T07:48:40;103224.88;;;-7.67;90.00
4273;BME280;63887;53.656;9.810;2022-12-18T07:51:07;103224.72;;;-7.56;89.69
4273;BME280;63887;53.656;9.810;2022-12-18T07:53:34;103232.47;;;-7.54;89.64
4273;BME280;63887;53.656;9.810;2022-12-18T07:56:04;103234.47;;;-7.48;89.37
4273;BME280;63887;53.656;9.810;2022-12-18T07:58:32;103235.75;;;-7.42;89.22
4273;BME280;63887;53.656;9.810;2022-12-18T08:01:02;103229.75;;;-7.42;89.20
4273;BME280;63887;53.656;9.810;2022-12-18T08:03:29;103222.13;;;-7.42;89.62
4273;BME280;63887;53.656;9.810;2022-12-18T08:05:58;103221.31;;;-7.41;89.73
4273;BME280;63887;53.656;9.810;2022-12-18T08:08:25;103220.06;;;-7.33;89.53
4273;BME280;63887;53.656;9.810;2022-12-18T08:10:51;103218.22;;;-7.21;89.40
4273;BME280;63887;53.656;9.810;2022-12-18T08:13:19;103223.66;;;-7.00;88.98
4273;BME280;63887;53.656;9.810;2022-12-18T08:15:46;103217.09;;;-6.97;88.75
4273;BME280;63887;53.656;9.810;2022-12-18T08:18:12;103208.63;;;-6.96;88.97
4273;BME280;63887;53.656;9.810;2022-12-18T08:20:38;103211.09;;;-6.97;89.06
4273;BME280;63887;53.656;9.810;2022-12-18T08:23:08;103209.84;;;-6.89;89.28
4273;BME280;63887;53.656;9.810;2022-12-18T08:25:34;103206.78;;;-6.83;88.90
4273;BME280;63887;53.656;9.810;2022-12-18T08:28:01;103213.16;;;-6.75;88.81
4273;BME280;63887;53.656;9.810;2022-12-18T08:30:28;103211.56;;;-6.73;88.66
4273;BME280;63887;53.656;9.810;2022-12-18T08:32:55;103207.50;;;-6.70;88.45
4273;BME280;63887;53.656;9.810;2022-12-18T08:35:21;103201.63;;;-6.69;88.18
4273;BME280;63887;53.656;9.810;2022-12-18T08:37:47;103197.28;;;-6.70;88.67
4273;BME280;63887;53.656;9.810;2022-12-18T08:40:14;103202.25;;;-6.73;88.57
4273;BME280;63887;53.656;9.810;2022-12-18T08:42:41;103212.00;;;-6.66;88.44
4273;BME280;63887;53.656;9.810;2022-12-18T08:45:25;103221.56;;;-6.62;88.53
4273;BME280;63887;53.656;9.810;2022-12-18T08:47:52;103225.66;;;-6.65;89.28
4273;BME280;63887;53.656;9.810;2022-12-18T08:50:19;103220.06;;;-6.58;88.95
4273;BME280;63887;53.656;9.810;2022-12-18T08:52:45;103220.50;;;-6.50;89.63
4273;BME280;63887;53.656;9.810;2022-12-18T08:55:12;103221.63;;;-6.45;89.29
4273;BME280;63887;53.656;9.810;2022-12-18T08:57:38;103224.53;;;-6.39;89.07
4273;BME280;63887;53.656;9.810;2022-12-18T09:00:05;103219.22;;;-6.42;89.02
4273;BME280;63887;53.656;9.810;2022-12-18T09:02:33;103222.03;;;-6.38;89.05
4273;BME280;63887;53.656;9.810;2022-12-18T09:05:00;103221.97;;;-6.39;89.18
4273;BME280;63887;53.656;9.810;2022-12-18T09:07:27;103216.06;;;-6.38;89.04
4273;BME280;63887;53.656;9.810;2022-12-18T09:09:53;103226.66;;;-6.31;89.17
4273;BME280;63887;53.656;9.810;2022-12-18T09:12:20;103226.03;;;-6.26;89.29
4273;BME280;63887;53.656;9.810;2022-12-18T09:14:46;103216.97;;;-6.21;89.34
4273;BME280;63887;53.656;9.810;2022-12-18T09:17:13;103208.25;;;-5.92;88.40
4273;BME280;63887;53.656;9.810;2022-12-18T09:19:39;103207.97;;;-5.81;88.11
4273;BME280;63887;53.656;9.810;2022-12-18T09:22:07;103214.03;;;-5.62;87.28
4273;BME280;63887;53.656;9.810;2022-12-18T09:24:34;103205.63;;;-5.60;87.24
4273;BME280;63887;53.656;9.810;2022-12-18T09:27:01;103210.09;;;-5.56;87.24
4273;BME280;63887;53.656;9.810;2022-12-18T09:29:27;103208.75;;;-5.49;87.34
4273;BME280;63887;53.656;9.810;2022-12-18T09:31:54;103215.97;;;-5.41;87.12
4273;BME280;63887;53.656;9.810;2022-12-18T09:34:20;103213.56;;;-5.37;87.29
4273;BME280;63887;53.656;9.810;2022-12-18T09:36:47;103211.25;;;-5.33;87.43
4273;BME280;63887;53.656;9.810;2022-12-18T09:39:14;103215.78;;;-5.27;86.82
4273;BME280;63887;53.656;9.810;2022-12-18T09:41:44;103226.31;;;-5.21;86.86
4273;BME280;63887;53.656;9.810;2022-12-18T09:44:19;103220.41;;;-5.20;87.25
4273;BME280;63887;53.656;9.810;2022-12-18T09:46:51;103218.63;;;-5.21;87.34
4273;BME280;63887;53.656;9.810;2022-12-18T09:49:23;103217.13;;;-5.18;87.48
4273;BME280;63887;53.656;9.810;2022-12-18T09:51:54;103216.31;;;-5.17;87.76
4273;BME280;63887;53.656;9.810;2022-12-18T09:54:25;103216.81;;;-5.06;87.67
4273;BME280;63887;53.656;9.810;2022-12-18T09:56:53;103219.09;;;-4.94;87.30
4273;BME280;63887;53.656;9.810;2022-12-18T09:59:24;103212.97;;;-4.80;86.85
4273;BME280;63887;53.656;9.810;2022-12-18T10:01:51;103212.66;;;-4.68;86.03
4273;BME280;63887;53.656;9.810;2022-12-18T10:04:18;103213.25;;;-4.56;86.04
4273;BME280;63887;53.656;9.810;2022-12-18T10:06:51;103209.41;;;-4.46;86.22
4273;BME280;63887;53.656;9.810;2022-12-18T10:09:27;103204.59;;;-4.40;86.04
4273;BME280;63887;53.656;9.810;2022-12-18T10:12:01;103210.84;;;-4.34;85.51
4273;BME280;63887;53.656;9.810;2022-12-18T10:14:34;103212.78;;;-4.30;85.52
4273;BME280;63887;53.656;9.810;2022-12-18T10:17:11;103220.38;;;-4.31;85.56
4273;BME280;63887;53.656;9.810;2022-12-18T10:19:44;103216.53;;;-4.22;85.16
4273;BME280;63887;53.656;9.810;2022-12-18T10:22:30;103227.91;;;-4.16;85.21
4273;BME280;63887;53.656;9.810;2022-12-18T10:25:05;103230.78;;;-4.09;84.77
4273;BME280;63887;53.656;9.810;2022-12-18T10:27:39;103224.31;;;-4.01;84.94
4273;BME280;63887;53.656;9.810;2022-12-18T10:30:12;103221.28;;;-3.92;83.84
4273;BME280;63887;53.656;9.810;2022-12-18T10:32:39;103220.34;;;-3.94;84.38
4273;BME280;63887;53.656;9.810;2022-12-18T10:35:15;103227.03;;;-3.98;84.76
4273;BME280;63887;53.656;9.810;2022-12-18T10:38:05;103226.09;;;-4.00;85.08
4273;BME280;63887;53.656;9.810;2022-12-18T10:40:48;103226.28;;;-3.95;84.43
4273;BME280;63887;53.656;9.810;2022-12-18T10:43:19;103228.03;;;-3.94;85.22
4273;BME280;63887;53.656;9.810;2022-12-18T10:46:00;103221.47;;;-3.87;85.09
4273;BME280;63887;53.656;9.810;2022-12-18T10:48:27;103217.44;;;-3.82;84.84
4273;BME280;63887;53.656;9.810;2022-12-18T10:50:54;103205.97;;;-3.71;84.46
4273;BME280;63887;53.656;9.810;2022-12-18T10:53:22;103195.72;;;-3.50;82.54
4273;BME280;63887;53.656;9.810;2022-12-18T10:55:52;103203.13;;;-3.37;82.47
4273;BME280;63887;53.656;9.810;2022-12-18T10:58:25;103191.97;;;-3.17;80.98
4273;BME280;63887;53.656;9.810;2022-12-18T11:01:03;103194.16;;;-3.05;80.90
4273;BME280;63887;53.656;9.810;2022-12-18T11:03:33;103197.06;;;-2.97;80.83
4273;BME280;63887;53.656;9.810;2022-12-18T11:06:03;103185.50;;;-2.86;80.00
4273;BME280;63887;53.656;9.810;2022-12-18T11:08:30;103188.78;;;-2.90;80.22
4273;BME280;63887;53.656;9.810;2022-12-18T11:10:58;103180.06;;;-2.94;80.38
4273;BME280;63887;53.656;9.810;2022-12-18T11:13:26;103181.25;;;-2.86;80.46
4273;BME280;63887;53.656;9.810;2022-12-18T11:15:52;103187.63;;;-2.76;79.49
4273;BME280;63887;53.656;9.810;2022-12-18T11:18:22;103185.47;;;-2.65;78.74
4273;BME280;63887;53.656;9.810;2022-12-18T11:20:52;103186.03;;;-2.73;78.76
4273;BME280;63887;53.656;9.810;2022-12-18T11:23:21;103183.47;;;-2.73;79.00
4273;BME280;63887;53.656;9.810;2022-12-18T11:25:58;103175.06;;;-2.68;79.14
4273;BME280;63887;53.656;9.810;2022-12-18T11:28:28;103177.94;;;-2.61;77.89
4273;BME280;63887;53.656;9.810;2022-12-18T11:31:18;103182.13;;;-2.63;78.11
4273;BME280;63887;53.656;9.810;2022-12-18T11:33:48;103177.16;;;-2.58;78.03
4273;BME280;63887;53.656;9.810;2022-12-18T11:36:18;103177.00;;;-2.63;77.82
4273;BME280;63887;53.656;9.810;2022-12-18T11:38:47;103174.72;;;-2.55;78.29
4273;BME280;63887;53.656;9.810;2022-12-18T11:41:21;103179.69;;;-2.37;77.08
4273;BME280;63887;53.656;9.810;2022-12-18T11:44:13;103177.91;;;-2.38;77.06
4273;BME280;63887;53.656;9.810;2022-12-18T11:46:46;103166.28;;;-2.29;77.19
4273;BME280;63887;53.656;9.810;2022-12-18T11:49:18;103170.34;;;-2.35;77.17
4273;BME280;63887;53.656;9.810;2022-12-18T11:51:50;103166.88;;;-2.36;77.60
4273;BME280;63887;53.656;9.810;2022-12-18T11:54:18;103154.34;;;-2.51;78.06
4273;BME280;63887;53.656;9.810;2022-12-18T11:56:49;103152.59;;;-2.52;78.41
4273;BME280;63887;53.656;9.810;2022-12-18T11:59:22;103150.75;;;-2.54;78.58
4273;BME280;63887;53.656;9.810;2022-12-18T12:01:56;103141.09;;;-2.61;78.84
4273;BME280;63887;53.656;9.810;2022-12-18T12:04:48;103127.88;;;-2.48;77.24
4273;BME280;63887;53.656;9.810;2022-12-18T12:07:23;103136.22;;;-2.54;76.99
4273;BME280;63887;53.656;9.810;2022-12-18T12:10:02;103126.41;;;-2.42;76.75
4273;BME280;63887;53.656;9.810;2022-12-18T12:12:41;103129.22;;;-2.35;76.13
4273;BME280;63887;53.656;9.810;2022-12-18T12:15:23;103130.19;;;-2.32;76.29
4273;BME280;63887;53.656;9.810;2022-12-18T12:17:55;103127.56;;;-2.33;76.76
4273;BME280;63887;53.656;9.810;2022-12-18T12:20:30;103131.16;;;-2.28;77.04
4273;BME280;63887;53.656;9.810;2022-12-18T12:23:03;103118.47;;;-2.24;76.99
4273;BME280;63887;53.656;9.810;2022-12-18T12:25:38;103114.97;;;-2.26;77.47
4273;BME280;63887;53.656;9.810;2022-12-18T12:28:17;103098.53;;;-2.31;77.50
4273;BME280;63887;53.656;9.810;2022-12-18T12:30:55;103087.03;;;-2.17;76.59
4273;BME280;63887;53.656;9.810;2022-12-18T12:33:33;103096.53;;;-2.14;76.12
4273;BME280;63887;53.656;9.810;2022-12-18T12:36:09;103095.47;;;-2.21;76.45
4273;BME280;63887;53.656;9.810;2022-12-18T12:38:42;103075.53;;;-2.26;77.10
4273;BME280;63887;53.656;9.810;2022-12-18T12:41:13;103071.59;;;-2.17;76.33
4273;BME280;63887;53.656;9.810;2022-12-18T12:43:58;103069.75;;;-2.21;76.95
4273;BME280;63887;53.656;9.810;2022-12-18T12:46:26;103057.31;;;-2.08;76.77
4273;BME280;63887;53.656;9.810;2022-12-18T12:48:54;103060.69;;;-2.10;76.34
4273;BME280;63887;53.656;9.810;2022-12-18T12:51:24;103057.19;;;-2.12;75.57
4273;BME280;63887;53.656;9.810;2022-12-18T12:53:52;103061.19;;;-2.21;76.12
4273;BME280;63887;53.656;9.810;2022-12-18T12:56:21;103056.19;;;-2.17;76.63
4273;BME280;63887;53.656;9.810;2022-12-18T12:58:54;103054.72;;;-2.08;76.77
4273;BME280;63887;53.656;9.810;2022-12-18T13:01:28;103055.06;;;-1.99;75.81
4273;BME280;63887;53.656;9.810;2022-12-18T13:04:03;103051.50;;;-2.03;76.27
4273;BME280;63887;53.656;9.810;2022-12-18T13:06:42;103037.66;;;-1.81;74.94
4273;BME280;63887;53.656;9.810;2022-12-18T13:09:10;103049.75;;;-1.78;73.84
4273;BME280;63887;53.656;9.810;2022-12-18T13:11:39;103047.78;;;-1.86;74.22
4273;BME280;63887;53.656;9.810;2022-12-18T13:14:26;103053.63;;;-1.91;74.96